createdAt,value
2023-03-21T00:01:13.153Z,99233.41
2023-03-21T00:03:43.660Z,99237.66
2023-03-21T00:06:13.540Z,99234.41
2023-03-21T00:08:42.143Z,99233.34
2023-03-21T00:11:12.248Z,99227.88
2023-03-21T00:13:42.762Z,99232.78
2023-03-21T00:16:17.987Z,99214.47
2023-03-21T00:18:52.871Z,99225.00
2023-03-21T00:21:43.874Z,99227.91
2023-03-21T00:24:11.238Z,99214.16
2023-03-21T00:26:39.897Z,99208.97
2023-03-21T00:29:08.173Z,99221.06
2023-03-21T00:31:36.376Z,99210.72
2023-03-21T00:34:05.124Z,99209.25
2023-03-21T00:36:33.353Z,99203.94
2023-03-21T00:39:01.607Z,99199.88
2023-03-21T00:41:45.319Z,99197.22
2023-03-21T00:44:16.196Z,99203.69
2023-03-21T00:46:57.353Z,99195.53
2023-03-21T00:49:33.820Z,99196.84
2023-03-21T00:52:18.346Z,99200.75
2023-03-21T00:54:52.979Z,99202.53
2023-03-21T00:57:29.268Z,99197.44
2023-03-21T01:00:07.719Z,99200.06
2023-03-21T01:02:38.357Z,99200.84
2023-03-21T01:05:06.907Z,99195.63
2023-03-21T01:07:35.558Z,99197.69
2023-03-21T01:10:04.557Z,99201.06
2023-03-21T01:12:32.576Z,99194.25
2023-03-21T01:15:01.549Z,99193.84
2023-03-21T01:17:29.659Z,99194.91
2023-03-21T01:19:57.868Z,99193.06
2023-03-21T01:22:26.636Z,99197.69
2023-03-21T01:25:00.576Z,99194.97
2023-03-21T01:27:34.317Z,99190.47
2023-03-21T01:30:06.308Z,99186.75
2023-03-21T01:32:37.245Z,99187.97
2023-03-21T01:35:07.008Z,99205.16
2023-03-21T01:37:35.633Z,99196.13
2023-03-21T01:40:05.338Z,99193.03
2023-03-21T01:42:33.923Z,99192.78
2023-03-21T01:45:06.314Z,99193.09
2023-03-21T01:47:35.111Z,99198.44
2023-03-21T01:50:04.405Z,99204.78
2023-03-21T01:52:38.912Z,99202.19
2023-03-21T01:55:12.190Z,99198.84
2023-03-21T01:57:55.209Z,99205.69
2023-03-21T02:00:29.788Z,99196.56
2023-03-21T02:03:11.680Z,99197.41
2023-03-21T02:05:51.690Z,99204.44
2023-03-21T02:08:25.887Z,99196.44
2023-03-21T02:11:05.334Z,99197.06
2023-03-21T02:13:38.257Z,99192.87
2023-03-21T02:16:18.643Z,99197.47
2023-03-21T02:19:02.797Z,99202.66
2023-03-21T02:22:03.407Z,99196.53
2023-03-21T02:24:48.926Z,99202.69
2023-03-21T02:27:24.566Z,99195.59
2023-03-21T02:30:31.822Z,99198.19
2023-03-21T02:33:11.556Z,99194.59
2023-03-21T02:36:13.607Z,99185.53
2023-03-21T02:38:48.668Z,99189.69
2023-03-21T02:41:40.749Z,99195.81
2023-03-21T02:44:16.729Z,99189.53
2023-03-21T02:47:06.492Z,99197.47
2023-03-21T02:49:46.583Z,99190.09
2023-03-21T02:52:32.077Z,99186.91
2023-03-21T02:55:14.275Z,99192.91
2023-03-21T02:57:46.546Z,99193.00
2023-03-21T03:00:19.892Z,99188.44
2023-03-21T03:02:54.618Z,99191.81
2023-03-21T03:05:30.020Z,99193.06
2023-03-21T03:08:17.278Z,99197.00
2023-03-21T03:10:54.798Z,99197.84
2023-03-21T03:13:32.653Z,99189.78
2023-03-21T03:16:15.790Z,99193.87
2023-03-21T03:18:57.560Z,99181.72
2023-03-21T03:21:48.602Z,99186.91
2023-03-21T03:24:30.301Z,99191.25
2023-03-21T03:27:08.190Z,99203.38
2023-03-21T03:29:39.797Z,99189.69
2023-03-21T03:32:13.858Z,99193.22
2023-03-21T03:34:46.181Z,99194.59
2023-03-21T03:37:17.216Z,99190.22
2023-03-21T03:39:50.608Z,99187.81
2023-03-21T03:42:28.357Z,99195.34
2023-03-21T03:44:58.077Z,99184.16
2023-03-21T03:47:34.997Z,99190.84
2023-03-21T03:50:28.686Z,99184.50
2023-03-21T03:53:19.057Z,99189.69
2023-03-21T03:55:48.646Z,99186.19
2023-03-21T03:58:24.772Z,99187.69
2023-03-21T04:00:57.739Z,99187.75
2023-03-21T04:03:26.577Z,99191.47
2023-03-21T04:05:54.829Z,99195.66
2023-03-21T04:08:23.658Z,99196.62
2023-03-21T04:10:52.481Z,99184.22
2023-03-21T04:13:20.873Z,99197.28
2023-03-21T04:15:49.569Z,99197.03
2023-03-21T04:18:19.070Z,99194.00
2023-03-21T04:20:48.906Z,99196.50
2023-03-21T04:23:21.992Z,99200.09
2023-03-21T04:25:56.811Z,99197.22
2023-03-21T04:28:27.209Z,99195.97
2023-03-21T04:31:03.609Z,99189.53
2023-03-21T04:33:38.952Z,99195.81
2023-03-21T04:36:09.703Z,99190.44
2023-03-21T04:38:39.476Z,99189.31
2023-03-21T04:41:07.747Z,99189.22
2023-03-21T04:43:36.521Z,99192.63
2023-03-21T04:46:05.186Z,99192.97
2023-03-21T04:48:33.302Z,99192.13
2023-03-21T04:51:01.691Z,99191.31
2023-03-21T04:53:30.296Z,99196.44
2023-03-21T04:55:58.550Z,99186.25
2023-03-21T04:58:26.975Z,99186.53
2023-03-21T05:00:55.578Z,99195.81
2023-03-21T05:03:24.656Z,99193.00
2023-03-21T05:05:52.817Z,99197.44
2023-03-21T05:08:21.586Z,99197.81
2023-03-21T05:10:49.839Z,99201.69
2023-03-21T05:13:18.157Z,99209.47
2023-03-21T05:15:47.047Z,99207.09
2023-03-21T05:18:15.567Z,99207.03
2023-03-21T05:20:45.377Z,99209.47
2023-03-21T05:23:14.395Z,99210.00
2023-03-21T05:25:42.665Z,99212.16
2023-03-21T05:28:11.324Z,99205.91
2023-03-21T05:30:39.985Z,99203.69
2023-03-21T05:33:08.393Z,99209.63
2023-03-21T05:35:36.870Z,99209.41
2023-03-21T05:38:06.767Z,99206.28
2023-03-21T05:40:35.767Z,99211.78
2023-03-21T05:43:03.996Z,99208.22
2023-03-21T05:45:32.554Z,99206.19
2023-03-21T05:48:01.314Z,99213.66
2023-03-21T05:50:30.710Z,99217.13
2023-03-21T05:53:01.651Z,99214.47
2023-03-21T05:55:29.886Z,99217.34
2023-03-21T05:57:58.541Z,99223.37
2023-03-21T06:00:29.632Z,99220.00
2023-03-21T06:03:01.154Z,99216.84
2023-03-21T06:05:30.596Z,99216.06
2023-03-21T06:07:58.969Z,99221.44
2023-03-21T06:10:27.858Z,99223.09
2023-03-21T06:12:56.111Z,99216.63
2023-03-21T06:15:25.560Z,99216.84
2023-03-21T06:17:54.325Z,99217.03
2023-03-21T06:20:22.483Z,99222.47
2023-03-21T06:22:51.361Z,99224.81
2023-03-21T06:25:20.009Z,99224.41
2023-03-21T06:27:48.382Z,99227.31
2023-03-21T06:30:18.219Z,99226.94
2023-03-21T06:32:47.012Z,99224.97
2023-03-21T06:35:17.556Z,99226.88
2023-03-21T06:37:46.699Z,99233.66
2023-03-21T06:40:17.519Z,99237.78
2023-03-21T06:42:46.616Z,99242.38
2023-03-21T06:45:15.228Z,99231.81
2023-03-21T06:47:43.744Z,99228.19
2023-03-21T06:50:12.712Z,99226.06
2023-03-21T06:52:41.491Z,99234.50
2023-03-21T06:55:10.143Z,99231.75
2023-03-21T06:57:39.633Z,99227.47
2023-03-21T07:00:09.700Z,99240.69
2023-03-21T07:02:42.664Z,99242.56
2023-03-21T07:05:11.822Z,99226.03
2023-03-21T07:07:40.882Z,99237.09
2023-03-21T07:10:10.066Z,99239.59
2023-03-21T07:12:42.052Z,99246.94
2023-03-21T07:15:10.859Z,99245.28
2023-03-21T07:17:40.620Z,99240.19
2023-03-21T07:20:09.471Z,99242.47
2023-03-21T07:22:37.630Z,99244.09
2023-03-21T07:25:08.242Z,99245.03
2023-03-21T07:27:40.797Z,99247.69
2023-03-21T07:30:11.288Z,99246.31
2023-03-21T07:32:40.176Z,99255.66
2023-03-21T07:35:13.500Z,99250.69
2023-03-21T07:37:42.623Z,99250.91
2023-03-21T07:40:14.023Z,99252.44
2023-03-21T07:42:42.989Z,99246.19
2023-03-21T07:45:16.626Z,99241.09
2023-03-21T07:47:48.494Z,99243.09
2023-03-21T07:50:17.106Z,99246.37
2023-03-21T07:52:45.625Z,99250.06
2023-03-21T07:55:14.177Z,99244.75
2023-03-21T07:57:42.423Z,99247.34
2023-03-21T08:00:11.246Z,99247.75
2023-03-21T08:02:41.295Z,99240.47
2023-03-21T08:05:11.793Z,99254.59
2023-03-21T08:07:40.011Z,99252.31
2023-03-21T08:10:10.637Z,99253.28
2023-03-21T08:12:39.375Z,99253.84
2023-03-21T08:15:09.655Z,99256.91
2023-03-21T08:17:38.350Z,99258.66
2023-03-21T08:20:09.339Z,99249.00
2023-03-21T08:22:38.768Z,99256.03
2023-03-21T08:25:08.592Z,99252.72
2023-03-21T08:27:36.765Z,99242.94
2023-03-21T08:30:05.304Z,99255.31
2023-03-21T08:32:34.118Z,99242.50
2023-03-21T08:35:03.116Z,99256.50
2023-03-21T08:37:31.376Z,99250.72
2023-03-21T08:39:59.879Z,99252.81
2023-03-21T08:42:28.086Z,99256.38
2023-03-21T08:44:56.321Z,99265.31
2023-03-21T08:47:26.639Z,99257.41
2023-03-21T08:49:55.219Z,99253.66
2023-03-21T08:52:24.644Z,99252.72
2023-03-21T08:54:53.135Z,99248.34
2023-03-21T08:57:21.680Z,99247.03
2023-03-21T08:59:50.541Z,99247.44
2023-03-21T09:02:18.840Z,99249.62
2023-03-21T09:04:47.844Z,99245.00
2023-03-21T09:07:18.351Z,99258.44
2023-03-21T09:09:53.357Z,99250.25
2023-03-21T09:12:27.079Z,99254.97
2023-03-21T09:14:56.687Z,99258.84
2023-03-21T09:17:26.701Z,99250.78
2023-03-21T09:19:57.562Z,99259.03
2023-03-21T09:22:26.408Z,99256.63
2023-03-21T09:24:54.902Z,99261.22
2023-03-21T09:27:28.533Z,99254.34
2023-03-21T09:29:57.821Z,99238.28
2023-03-21T09:32:26.080Z,99259.63
2023-03-21T09:34:56.439Z,99257.81
2023-03-21T09:37:24.977Z,99253.78
2023-03-21T09:39:53.413Z,99251.50
2023-03-21T09:42:45.943Z,99254.81
2023-03-21T09:45:28.015Z,99250.91
2023-03-21T09:47:57.343Z,99245.53
2023-03-21T09:50:37.765Z,99249.13
2023-03-21T09:53:26.837Z,99245.75
2023-03-21T09:55:55.809Z,99239.84
2023-03-21T09:58:28.540Z,99239.22
2023-03-21T10:01:05.621Z,99239.37
2023-03-21T10:03:37.258Z,99233.19
2023-03-21T10:06:11.787Z,99237.88
2023-03-21T10:08:42.376Z,99236.94
2023-03-21T10:11:23.808Z,99227.69
2023-03-21T10:13:59.248Z,99225.75
2023-03-21T10:16:32.885Z,99225.97
2023-03-21T10:19:04.309Z,99229.00
2023-03-21T10:21:58.495Z,99220.72
2023-03-21T10:24:25.785Z,99224.44
2023-03-21T10:26:54.978Z,99219.47
2023-03-21T10:29:30.006Z,99210.81
2023-03-21T10:31:58.180Z,99224.88
2023-03-21T10:34:43.496Z,99206.00
2023-03-21T10:37:13.334Z,99219.09
2023-03-21T10:39:45.858Z,99225.19
2023-03-21T10:42:20.573Z,99224.28
2023-03-21T10:44:53.539Z,99217.97
2023-03-21T10:47:31.265Z,99220.16
2023-03-21T10:50:10.424Z,99221.81
2023-03-21T10:52:51.442Z,99212.03
2023-03-21T10:55:26.879Z,99209.34
2023-03-21T10:58:11.124Z,99202.09
2023-03-21T11:00:41.995Z,99202.78
2023-03-21T11:03:25.910Z,99202.13
2023-03-21T11:05:57.205Z,99199.81
2023-03-21T11:08:25.851Z,99189.84
2023-03-21T11:11:09.480Z,99181.25
2023-03-21T11:13:41.216Z,99182.38
2023-03-21T11:16:23.753Z,99183.19
2023-03-21T11:18:56.909Z,99182.12
2023-03-21T11:21:29.660Z,99181.22
2023-03-21T11:23:59.906Z,99175.81
2023-03-21T11:26:32.580Z,99172.19
2023-03-21T11:29:01.518Z,99174.00
2023-03-21T11:31:40.116Z,99173.22
2023-03-21T11:34:12.831Z,99174.06
2023-03-21T11:36:41.808Z,99169.47
2023-03-21T11:39:15.128Z,99165.19
2023-03-21T11:41:44.061Z,99154.37
2023-03-21T11:44:31.180Z,99149.63
2023-03-21T11:47:00.127Z,99151.69
2023-03-21T11:49:28.908Z,99147.56
2023-03-21T11:52:38.956Z,99151.16
2023-03-21T11:55:23.092Z,99152.47
2023-03-21T11:58:26.059Z,99148.00
2023-03-21T12:01:25.189Z,99144.38
2023-03-21T12:04:03.003Z,99133.41
2023-03-21T12:06:56.324Z,99133.13
2023-03-21T12:09:34.662Z,99134.72
2023-03-21T12:12:38.972Z,99122.91
2023-03-21T12:15:08.521Z,99119.69
2023-03-21T12:17:36.635Z,99128.03
2023-03-21T12:20:18.961Z,99127.31
2023-03-21T12:23:17.146Z,99122.66
2023-03-21T12:25:56.919Z,99128.69
2023-03-21T12:28:46.649Z,99125.56
2023-03-21T12:31:53.803Z,99129.09
2023-03-21T12:34:22.217Z,99129.78
2023-03-21T12:37:13.098Z,99124.81
2023-03-21T12:39:46.907Z,99121.84
2023-03-21T12:42:54.996Z,99122.47
2023-03-21T12:45:37.341Z,99116.56
2023-03-21T12:48:26.489Z,99113.81
2023-03-21T12:50:56.516Z,99112.81
2023-03-21T12:53:38.965Z,99108.31
2023-03-21T12:56:20.017Z,99095.22
2023-03-21T12:59:12.438Z,99097.34
2023-03-21T13:01:44.936Z,99102.50
2023-03-21T13:04:36.382Z,99095.72
2023-03-21T13:07:10.974Z,99096.38
2023-03-21T13:09:41.521Z,99083.91
2023-03-21T13:12:29.030Z,99082.84
2023-03-21T13:15:23.628Z,99084.59
2023-03-21T13:18:00.700Z,99080.25
2023-03-21T13:20:41.243Z,99075.41
2023-03-21T13:23:09.800Z,99080.25
2023-03-21T13:25:49.015Z,99085.53
2023-03-21T13:28:23.259Z,99075.09
2023-03-21T13:30:51.984Z,99081.53
2023-03-21T13:33:29.537Z,99073.38
2023-03-21T13:36:07.493Z,99081.66
2023-03-21T13:38:40.416Z,99071.69
2023-03-21T13:41:17.909Z,99074.03
2023-03-21T13:43:57.954Z,99069.25
2023-03-21T13:46:26.259Z,99064.34
2023-03-21T13:49:10.085Z,99057.31
2023-03-21T13:51:47.741Z,99053.88
2023-03-21T13:54:17.936Z,99058.53
2023-03-21T13:56:50.096Z,99058.13
2023-03-21T13:59:40.060Z,99062.66
2023-03-21T14:02:30.434Z,99054.03
2023-03-21T14:05:25.053Z,99049.88
2023-03-21T14:08:15.375Z,99049.19
2023-03-21T14:10:52.082Z,99034.75
2023-03-21T14:13:23.255Z,99041.94
2023-03-21T14:15:56.844Z,99036.53
2023-03-21T14:18:47.859Z,99030.12
2023-03-21T14:21:28.032Z,99030.53
2023-03-21T14:24:04.365Z,99031.09
2023-03-21T14:26:38.610Z,99024.25
2023-03-21T14:29:22.974Z,99019.50
2023-03-21T14:31:56.550Z,99017.09
2023-03-21T14:34:26.392Z,99010.28
2023-03-21T14:36:58.541Z,99009.38
2023-03-21T14:39:32.154Z,99009.78
2023-03-21T14:42:11.657Z,99012.84
2023-03-21T14:44:58.094Z,99010.47
2023-03-21T14:47:28.709Z,99016.00
2023-03-21T14:49:57.876Z,99011.88
2023-03-21T14:52:31.468Z,99018.72
2023-03-21T14:55:01.551Z,99008.84
2023-03-21T14:57:32.149Z,99012.16
2023-03-21T15:00:06.138Z,99012.34
2023-03-21T15:02:38.115Z,99009.66
2023-03-21T15:05:37.772Z,99007.81
2023-03-21T15:08:18.679Z,99002.16
2023-03-21T15:11:07.505Z,98995.63
2023-03-21T15:13:53.231Z,98987.37
2023-03-21T15:16:21.821Z,98987.81
2023-03-21T15:18:50.682Z,98986.06
2023-03-21T15:21:30.156Z,98990.25
2023-03-21T15:24:03.472Z,98987.69
2023-03-21T15:26:32.924Z,98984.47
2023-03-21T15:29:02.652Z,98985.09
2023-03-21T15:31:37.259Z,98986.94
2023-03-21T15:34:06.530Z,98986.94
2023-03-21T15:36:38.163Z,98978.22
2023-03-21T15:39:09.025Z,98985.09
2023-03-21T15:41:37.700Z,98989.75
2023-03-21T15:44:14.515Z,98986.44
2023-03-21T15:46:46.438Z,98987.50
2023-03-21T15:49:19.081Z,98979.09
2023-03-21T15:51:50.478Z,98984.00
2023-03-21T15:54:26.166Z,98987.22
2023-03-21T15:57:03.587Z,98979.56
2023-03-21T15:59:35.816Z,98990.25
2023-03-21T16:02:04.884Z,98986.66
2023-03-21T16:04:57.096Z,98992.47
2023-03-21T16:07:25.555Z,98982.81
2023-03-21T16:10:02.130Z,98989.16
2023-03-21T16:12:30.707Z,98989.00
2023-03-21T16:14:59.309Z,98992.47
2023-03-21T16:17:39.839Z,98993.72
2023-03-21T16:20:23.458Z,99004.66
2023-03-21T16:22:53.096Z,99002.81
2023-03-21T16:25:22.077Z,99004.78
2023-03-21T16:27:50.612Z,99005.50
2023-03-21T16:30:22.168Z,99006.25
2023-03-21T16:32:51.386Z,99010.78
2023-03-21T16:35:22.282Z,99004.13
2023-03-21T16:37:52.395Z,99011.41
2023-03-21T16:40:31.324Z,99010.69
2023-03-21T16:42:59.914Z,99012.78
2023-03-21T16:45:30.716Z,99016.84
2023-03-21T16:47:59.606Z,99015.69
2023-03-21T16:50:58.107Z,99019.66
2023-03-21T16:53:26.185Z,99022.97
2023-03-21T16:55:54.939Z,99029.62
2023-03-21T16:58:23.106Z,99030.25
2023-03-21T17:00:51.179Z,99034.88
2023-03-21T17:03:22.218Z,99035.50
2023-03-21T17:05:50.737Z,99030.94
2023-03-21T17:08:21.225Z,99035.22
2023-03-21T17:10:49.817Z,99036.84
2023-03-21T17:13:19.115Z,99042.16
2023-03-21T17:15:47.537Z,99040.69
2023-03-21T17:18:16.248Z,99039.50
2023-03-21T17:20:44.409Z,99040.69
2023-03-21T17:23:12.676Z,99043.81
2023-03-21T17:25:44.247Z,99046.25
2023-03-21T17:28:12.437Z,99044.12
2023-03-21T17:30:41.721Z,99048.72
2023-03-21T17:33:10.087Z,99032.91
2023-03-21T17:35:38.750Z,99045.16
2023-03-21T17:38:13.144Z,99046.19
2023-03-21T17:40:41.688Z,99050.50
2023-03-21T17:43:16.234Z,99053.59
2023-03-21T17:45:45.214Z,99047.53
2023-03-21T17:48:13.794Z,99047.59
2023-03-21T17:50:42.144Z,99040.66
2023-03-21T17:53:10.463Z,99051.50
2023-03-21T17:55:40.955Z,99048.00
2023-03-21T17:58:12.028Z,99050.78
2023-03-21T18:00:41.451Z,99057.63
2023-03-21T18:03:09.979Z,99054.75
2023-03-21T18:05:38.095Z,99060.22
2023-03-21T18:08:10.740Z,99059.38
2023-03-21T18:10:41.583Z,99060.31
2023-03-21T18:13:10.540Z,99060.28
2023-03-21T18:15:44.937Z,99063.87
2023-03-21T18:18:16.215Z,99064.72
2023-03-21T18:20:52.241Z,99059.97
2023-03-21T18:23:22.237Z,99067.09
2023-03-21T18:25:52.844Z,99062.19
2023-03-21T18:28:22.284Z,99071.91
2023-03-21T18:33:41.088Z,99075.44
2023-03-21T18:36:10.413Z,99073.63
2023-03-21T18:38:39.408Z,99083.78
2023-03-21T18:41:08.982Z,99082.44
2023-03-21T18:46:30.709Z,99085.00
2023-03-21T18:48:58.863Z,99083.78
2023-03-21T18:51:26.983Z,99081.97
2023-03-21T18:53:55.592Z,99089.00
2023-03-21T18:57:06.356Z,99084.69
2023-03-21T18:59:13.846Z,99085.16
2023-03-21T19:01:43.562Z,99090.78
2023-03-21T19:04:23.076Z,99096.84
2023-03-21T19:06:55.264Z,99087.41
2023-03-21T19:09:29.642Z,99094.41
2023-03-21T19:12:00.889Z,99095.38
2023-03-21T19:14:30.265Z,99094.53
2023-03-21T19:17:47.569Z,99095.50
2023-03-21T19:19:48.557Z,99097.28
2023-03-21T19:22:17.005Z,99098.12
2023-03-21T19:24:45.159Z,99105.84
2023-03-21T19:27:13.746Z,99099.66
2023-03-21T19:29:42.329Z,99104.25
2023-03-21T19:32:12.434Z,99103.38
2023-03-21T19:34:41.065Z,99102.59
2023-03-21T19:37:09.216Z,99101.72
2023-03-21T19:39:38.297Z,99092.97
2023-03-21T19:42:16.952Z,99101.75
2023-03-21T19:44:46.405Z,99102.56
2023-03-21T19:47:14.945Z,99105.16
2023-03-21T19:50:33.079Z,99099.06
2023-03-21T19:52:32.311Z,99108.50
2023-03-21T19:55:00.647Z,99106.00
2023-03-21T19:57:28.847Z,99118.97
2023-03-21T19:59:57.467Z,99110.28
2023-03-21T20:02:39.881Z,99111.16
2023-03-21T20:05:10.333Z,99118.91
2023-03-21T20:07:38.931Z,99117.87
2023-03-21T20:10:09.389Z,99122.28
2023-03-21T20:12:38.216Z,99129.38
2023-03-21T20:15:17.191Z,99125.88
2023-03-21T20:17:47.315Z,99131.06
2023-03-21T20:20:18.317Z,99122.47
2023-03-21T20:23:07.952Z,99127.66
2023-03-21T20:25:40.726Z,99131.09
2023-03-21T20:28:16.242Z,99134.50
2023-03-21T20:30:53.614Z,99130.22
2023-03-21T20:33:22.364Z,99134.53
2023-03-21T20:38:46.147Z,99130.16
2023-03-21T20:41:14.683Z,99133.53
2023-03-21T20:46:31.723Z,99134.50
2023-03-21T20:49:00.016Z,99137.13
2023-03-21T20:54:18.141Z,99138.63
2023-03-21T20:56:46.328Z,99137.78
2023-03-21T20:59:24.581Z,99136.91
2023-03-21T21:01:58.275Z,99140.34
2023-03-21T21:04:55.788Z,99142.25
2023-03-21T21:07:22.179Z,99148.03
2023-03-21T21:09:50.534Z,99149.19
2023-03-21T21:12:23.445Z,99149.03
2023-03-21T21:14:52.402Z,99158.47
2023-03-21T21:17:37.165Z,99149.63
2023-03-21T21:20:18.897Z,99158.28
2023-03-21T21:22:59.020Z,99158.50
2023-03-21T21:25:32.170Z,99156.84
2023-03-21T21:28:02.194Z,99151.62
2023-03-21T21:30:32.007Z,99157.56
2023-03-21T21:33:01.161Z,99150.84
2023-03-21T21:35:30.736Z,99150.81
2023-03-21T21:37:58.879Z,99154.31
2023-03-21T21:40:27.215Z,99157.78
2023-03-21T21:42:55.871Z,99156.94
2023-03-21T21:45:24.136Z,99156.09
2023-03-21T21:47:52.449Z,99158.69
2023-03-21T21:50:22.483Z,99154.37
2023-03-21T21:52:53.057Z,99154.41
2023-03-21T21:55:22.139Z,99158.69
2023-03-21T21:57:51.056Z,99156.97
2023-03-21T22:00:20.415Z,99160.44
2023-03-21T22:02:49.218Z,99169.91
2023-03-21T22:05:19.325Z,99160.44
2023-03-21T22:07:52.796Z,99168.22
2023-03-21T22:10:23.725Z,99176.81
2023-03-21T22:12:52.385Z,99167.31
2023-03-21T22:15:22.808Z,99172.44
2023-03-21T22:17:51.947Z,99173.41
2023-03-21T22:20:21.496Z,99174.22
2023-03-21T22:22:49.762Z,99170.75
2023-03-21T22:25:18.492Z,99171.66
2023-03-21T22:27:47.529Z,99169.94
2023-03-21T22:30:17.648Z,99167.28
2023-03-21T22:32:56.409Z,99175.09
2023-03-21T22:35:27.702Z,99167.34
2023-03-21T22:37:56.643Z,99166.47
2023-03-21T22:40:24.918Z,99161.28
2023-03-21T22:42:53.110Z,99163.03
2023-03-21T22:45:21.797Z,99168.19
2023-03-21T22:47:50.039Z,99158.72
2023-03-21T22:50:18.362Z,99158.72
2023-03-21T22:52:46.900Z,99160.41
2023-03-21T22:55:14.944Z,99152.66
2023-03-21T22:57:43.122Z,99160.44
2023-03-21T23:00:13.448Z,99169.91
2023-03-21T23:02:42.406Z,99163.81
2023-03-21T23:05:11.200Z,99164.72
2023-03-21T23:07:40.019Z,99165.56
2023-03-21T23:10:09.178Z,99157.72
2023-03-21T23:12:37.851Z,99166.41
2023-03-21T23:15:08.412Z,99155.97
2023-03-21T23:17:36.858Z,99161.19
2023-03-21T23:20:09.021Z,99161.13
2023-03-21T23:22:38.576Z,99160.25
2023-03-21T23:25:08.438Z,99161.84
2023-03-21T23:27:36.682Z,99160.09
2023-03-21T23:30:06.769Z,99166.81
2023-03-21T23:32:35.026Z,99165.94
2023-03-21T23:35:03.308Z,99161.84
2023-03-21T23:37:31.923Z,99160.16
2023-03-21T23:40:00.138Z,99165.50
2023-03-21T23:42:29.760Z,99172.47
2023-03-21T23:44:58.245Z,99170.78
2023-03-21T23:47:26.352Z,99179.38
2023-03-21T23:49:54.786Z,99182.88
2023-03-21T23:52:23.349Z,99182.00
2023-03-21T23:54:51.591Z,99181.09
2023-03-21T23:57:19.754Z,99182.56
2023-03-21T23:59:48.479Z,99172.41
